Annapolis, MD (21401)

5:15 PM EDT on May 29, 2015 (GMT -0400)
Arnold (Indian Hills/Glen Eden) | | Change Station
CLOSE
Current Station
Personal Weather Station
Location: Arnold, MD
Elevation: 66 ft
Nearby Weather Stations

Elev 66 ft 39.02 °N, 76.49 °W | Updated 6 seconds ago

Clear
Clear
84.8 °F
Feels Like 91 °F
N
2.0
Wind Variable Wind from WSW
Gusts 4.0 mph

Today
High -- | Low -- °F
--% Chance of Precip.
Yesterday
High -- | Low -- °F
Precip. -- in
5:43 AM 8:23 PM
Waxing Gibbous, 86% visible
Pressure 30.21 in
Visibility 10.0 miles
Clouds Clear
Heat Index 91 °F
Dew Point 72 °F
Humidity 66%
Rainfall 0.00 in
Snow Depth Not available.
UV 5 out of 12
Pollen 8.00 out of 12
Air Quality Not available.
Flu Activity Sporadic
METAR KNAK 292054Z AUTO 12006KT 10SM CLR 26/20 A3020 RMK AO2 SLP228 T02560200 58020

More Conditions Fewer Conditions

Pressure 30.21 in
Visibility 10.0 miles
Clouds Clear
Heat Index 91 °F
Dew Point 72 °F
Humidity 66%
Rainfall 0.00 in
Snow Depth Not available.
UV 5 out of 12
Pollen 8.00 out of 12
Air Quality Not available.
Flu Activity Sporadic
METAR KNAK 292054Z AUTO 12006KT 10SM CLR 26/20 A3020 RMK AO2 SLP228 T02560200 58020

More Conditions Fewer Conditions

10-Day Weather Forecast

Almanac

Astronomy

May. 29, 2015 Rise Set
Actual Time
Civil Twilight
Nautical Twilight
Astronomical Twilight
Moon
Length of Visible Light
Length of Day
Tomorrow will be .
, % of the Moon is Illuminated

Today's Extremes

State Highs State Lows

Community

WunderPhotos

Upload Photos

1,825,359 photos uploaded!

WunderBlogs® & News

Nearby

Air Quality

  Air Quality AQ Index Pollutant
Not available.

Snow Depth

Station Depth Elevation

Earthquake Activity

City Distance Mag. Time & Date
Minimum magnitude displayed is 2.5.

Coastal Water Temperatures

Place Temperature

Stations

Nearby Weather Stations

Station Location Temp. Windchill Dew Point Humidity Wind Precip. Elev Updated Type